createdAt,value
2019-01-14T00:00:14.827Z,25.90
2019-01-14T00:02:43.750Z,16.23
2019-01-14T00:05:12.973Z,23.23
2019-01-14T00:07:41.953Z,18.30
2019-01-14T00:10:11.082Z,18.90
2019-01-14T00:12:40.067Z,24.77
2019-01-14T00:15:12.635Z,17.17
2019-01-14T00:17:41.566Z,19.77
2019-01-14T00:20:11.654Z,23.33
2019-01-14T00:22:40.719Z,22.67
2019-01-14T00:31:57.937Z,15.13
2019-01-14T00:34:30.604Z,21.90
2019-01-14T00:37:03.984Z,20.10
2019-01-14T00:39:33.260Z,16.93
2019-01-14T00:42:02.520Z,26.03
2019-01-14T00:44:34.512Z,15.10
2019-01-14T00:47:04.359Z,19.17
2019-01-14T00:49:33.265Z,18.37
2019-01-14T00:52:02.520Z,19.70
2019-01-14T00:54:31.671Z,12.53
2019-01-14T00:57:03.111Z,17.23
2019-01-14T00:59:32.116Z,21.53
2019-01-14T01:02:01.080Z,17.93
2019-01-14T01:04:30.048Z,15.80
2019-01-14T01:06:59.782Z,18.73
2019-01-14T01:09:28.966Z,11.43
2019-01-14T01:11:58.062Z,20.67
2019-01-14T01:14:27.199Z,20.37
2019-01-14T01:16:56.530Z,18.37
2019-01-14T01:19:25.526Z,18.53
2019-01-14T01:21:54.569Z,19.53
2019-01-14T01:24:23.571Z,15.97
2019-01-14T01:26:53.675Z,17.13
2019-01-14T01:29:22.692Z,17.93
2019-01-14T01:31:52.060Z,24.03
2019-01-14T01:34:21.554Z,17.07
2019-01-14T01:36:50.823Z,19.83
2019-01-14T01:39:20.018Z,17.87
2019-01-14T01:42:19.211Z,9.33
2019-01-14T01:44:48.162Z,16.37
2019-01-14T01:47:17.086Z,17.23
2019-01-14T01:49:46.200Z,16.10
2019-01-14T01:52:15.373Z,12.63
2019-01-14T01:54:44.285Z,15.80
2019-01-14T01:57:13.289Z,18.13
2019-01-14T01:59:42.177Z,16.17
2019-01-14T02:02:11.071Z,23.10
2019-01-14T02:04:40.719Z,15.93
2019-01-14T02:07:09.605Z,13.90
2019-01-14T02:09:38.510Z,8.53
2019-01-14T02:12:07.849Z,11.00
2019-01-14T02:14:37.146Z,11.37
2019-01-14T02:17:08.768Z,8.77
2019-01-14T02:19:46.139Z,12.27
2019-01-14T02:22:15.401Z,8.33
2019-01-14T02:24:45.197Z,13.40
2019-01-14T02:27:14.214Z,9.63
2019-01-14T02:29:43.448Z,15.37
2019-01-14T02:32:12.859Z,12.17
2019-01-14T02:34:41.773Z,12.63
2019-01-14T02:37:11.361Z,12.90
2019-01-14T02:39:40.524Z,12.20
2019-01-14T02:45:38.292Z,12.27
2019-01-14T02:48:07.587Z,20.37
2019-01-14T02:50:36.738Z,17.97
2019-01-14T02:53:05.632Z,11.37
2019-01-14T02:55:36.611Z,16.13
2019-01-14T02:58:05.965Z,12.13
2019-01-14T03:00:35.008Z,9.87
2019-01-14T03:03:07.146Z,11.63
2019-01-14T03:05:51.311Z,17.23
2019-01-14T03:08:20.989Z,16.33
2019-01-14T03:10:49.958Z,18.27
2019-01-14T03:13:18.961Z,15.67
2019-01-14T03:15:47.948Z,20.43
2019-01-14T03:18:16.873Z,20.33
2019-01-14T03:20:46.194Z,16.93
2019-01-14T03:23:15.251Z,14.30
2019-01-14T03:25:44.508Z,11.77
2019-01-14T03:28:13.831Z,15.47
2019-01-14T03:30:42.877Z,12.70
2019-01-14T03:33:11.808Z,13.27
2019-01-14T03:35:41.178Z,13.20
2019-01-14T03:38:10.876Z,12.70
2019-01-14T03:40:40.185Z,13.87
2019-01-14T03:43:10.128Z,10.30
2019-01-14T03:45:39.275Z,14.13
2019-01-14T03:48:11.352Z,11.70
2019-01-14T03:50:40.572Z,12.13
2019-01-14T03:53:11.334Z,8.53
2019-01-14T03:55:40.254Z,10.23
2019-01-14T03:58:10.758Z,14.90
2019-01-14T04:00:41.420Z,15.40
2019-01-14T04:03:10.781Z,13.07
2019-01-14T04:05:39.695Z,14.43
2019-01-14T04:08:08.585Z,27.87
2019-01-14T04:10:38.375Z,21.40
2019-01-14T04:13:09.638Z,16.27
2019-01-14T04:15:39.206Z,10.27
2019-01-14T04:18:08.133Z,18.57
2019-01-14T04:20:37.287Z,17.37
2019-01-14T04:23:06.463Z,14.17
2019-01-14T04:25:35.306Z,10.70
2019-01-14T04:28:04.258Z,16.20
2019-01-14T04:30:33.528Z,16.47
2019-01-14T04:33:02.476Z,12.00
2019-01-14T04:35:33.816Z,18.30
2019-01-14T04:38:02.801Z,17.77
2019-01-14T04:40:31.695Z,24.63
2019-01-14T04:46:32.069Z,21.47
2019-01-14T04:49:00.959Z,15.63
2019-01-14T04:51:29.816Z,13.43
2019-01-14T04:54:02.005Z,17.20
2019-01-14T04:56:31.173Z,16.27
2019-01-14T04:59:00.405Z,13.93
2019-01-14T05:01:29.408Z,15.27
2019-01-14T05:03:58.382Z,15.40
2019-01-14T05:06:27.263Z,14.43
2019-01-14T05:09:27.284Z,17.07
2019-01-14T05:11:58.170Z,15.63
2019-01-14T05:14:27.054Z,19.43
2019-01-14T05:16:59.000Z,17.67
2019-01-14T05:19:28.121Z,17.63
2019-01-14T05:21:57.116Z,15.23
2019-01-14T05:24:26.015Z,18.20
2019-01-14T05:26:55.310Z,18.70
2019-01-14T05:32:54.161Z,13.83
2019-01-14T05:35:24.790Z,12.63
2019-01-14T05:37:53.728Z,15.13
2019-01-14T05:40:25.670Z,14.37
2019-01-14T05:42:55.637Z,7.40
2019-01-14T05:45:24.860Z,8.50
2019-01-14T05:47:54.014Z,13.10
2019-01-14T05:50:23.971Z,8.20
2019-01-14T05:52:53.186Z,9.73
2019-01-14T05:55:24.906Z,10.70
2019-01-14T05:57:53.906Z,8.23
2019-01-14T06:00:32.405Z,8.03
2019-01-14T06:03:04.372Z,11.00
2019-01-14T06:05:33.291Z,9.57
2019-01-14T06:08:02.332Z,6.63
2019-01-14T06:10:31.608Z,13.57
2019-01-14T06:13:03.523Z,6.17
2019-01-14T06:15:32.471Z,12.30
2019-01-14T06:18:02.301Z,7.63
2019-01-14T06:20:31.928Z,12.30
2019-01-14T06:23:01.143Z,10.70
2019-01-14T06:25:30.441Z,14.17
2019-01-14T06:27:59.382Z,10.97
2019-01-14T06:30:29.256Z,10.30
2019-01-14T06:32:58.386Z,10.13
2019-01-14T06:35:27.371Z,12.47
2019-01-14T06:37:56.366Z,9.77
2019-01-14T06:40:25.619Z,12.50
2019-01-14T06:42:54.517Z,17.43
2019-01-14T06:45:24.054Z,13.83
2019-01-14T06:47:53.350Z,14.17
2019-01-14T06:50:25.667Z,16.47
2019-01-14T06:52:54.568Z,14.17
2019-01-14T06:55:23.786Z,17.43
2019-01-14T06:57:52.826Z,13.83
2019-01-14T07:00:24.139Z,15.90
2019-01-14T07:02:55.570Z,15.70
2019-01-14T07:05:24.868Z,21.57
2019-01-14T07:07:59.472Z,15.83
2019-01-14T07:10:27.024Z,20.20
2019-01-14T07:12:56.341Z,16.23
2019-01-14T07:15:25.539Z,30.00
2019-01-14T07:17:54.530Z,23.37
2019-01-14T07:20:23.814Z,26.03
2019-01-14T07:23:25.973Z,20.33
2019-01-14T07:25:57.222Z,23.33
2019-01-14T07:28:25.948Z,21.37
2019-01-14T07:30:57.441Z,20.23
2019-01-14T07:33:26.326Z,24.73
2019-01-14T07:35:55.222Z,22.53
2019-01-14T07:38:24.125Z,24.63
2019-01-14T07:40:55.140Z,29.20
2019-01-14T07:43:24.061Z,28.87
2019-01-14T07:45:53.043Z,35.07
2019-01-14T07:48:23.081Z,25.40
2019-01-14T07:50:52.040Z,18.73
2019-01-14T07:53:23.293Z,15.50
2019-01-14T07:55:52.539Z,18.57
2019-01-14T07:58:21.719Z,15.43
2019-01-14T08:00:51.639Z,18.67
2019-01-14T08:03:21.807Z,10.53
2019-01-14T08:05:50.717Z,11.13
2019-01-14T08:08:19.723Z,18.30
2019-01-14T08:10:50.623Z,16.13
2019-01-14T08:13:19.510Z,14.97
2019-01-14T08:15:49.452Z,17.73
2019-01-14T08:18:18.441Z,11.97
2019-01-14T08:20:47.236Z,8.77
2019-01-14T08:23:16.057Z,7.60
2019-01-14T08:25:45.798Z,8.80
2019-01-14T08:28:15.556Z,8.67
2019-01-14T08:30:44.798Z,8.73
2019-01-14T08:33:13.696Z,7.03
2019-01-14T08:35:43.193Z,10.10
2019-01-14T08:38:12.451Z,9.37
2019-01-14T08:40:41.408Z,9.90
2019-01-14T08:43:10.825Z,6.70
2019-01-14T08:45:39.710Z,7.17
2019-01-14T08:48:10.095Z,6.70
2019-01-14T08:50:39.265Z,14.80
2019-01-14T08:53:42.418Z,8.50
2019-01-14T08:56:11.713Z,13.07
2019-01-14T08:58:40.721Z,14.83
2019-01-14T09:01:09.771Z,8.87
2019-01-14T09:03:39.023Z,12.27
2019-01-14T09:06:08.021Z,9.77
2019-01-14T09:08:36.930Z,11.37
2019-01-14T09:11:06.637Z,11.57
2019-01-14T09:13:35.542Z,9.93
2019-01-14T09:16:05.518Z,8.17
2019-01-14T09:18:34.499Z,10.07
2019-01-14T09:21:05.365Z,11.70
2019-01-14T09:23:35.283Z,13.93
2019-01-14T09:26:04.518Z,14.33
2019-01-14T09:28:33.589Z,12.93
2019-01-14T09:31:02.525Z,14.10
2019-01-14T09:33:31.783Z,12.30
2019-01-14T09:36:00.677Z,10.37
2019-01-14T09:38:35.756Z,13.13
2019-01-14T09:41:01.647Z,13.30
2019-01-14T09:43:30.785Z,18.40
2019-01-14T09:46:01.730Z,10.87
2019-01-14T09:48:30.853Z,12.17
2019-01-14T09:51:01.108Z,8.83
2019-01-14T09:53:30.234Z,12.13
2019-01-14T09:55:59.247Z,10.37
2019-01-14T09:58:28.539Z,8.87
2019-01-14T10:00:57.471Z,9.23
2019-01-14T10:03:26.502Z,10.07
2019-01-14T10:05:55.636Z,11.30
2019-01-14T10:11:00.705Z,11.03
2019-01-14T10:13:30.386Z,10.60
2019-01-14T10:15:59.266Z,6.33
2019-01-14T10:18:31.903Z,4.80
2019-01-14T10:21:31.254Z,13.67
2019-01-14T10:24:01.015Z,9.23
2019-01-14T10:26:31.371Z,6.87
2019-01-14T10:29:03.375Z,10.07
2019-01-14T10:31:32.517Z,11.20
2019-01-14T10:34:02.267Z,8.17
2019-01-14T10:36:33.305Z,9.37
2019-01-14T10:39:02.227Z,7.53
2019-01-14T10:41:34.734Z,6.40
2019-01-14T10:44:03.717Z,4.33
2019-01-14T10:46:33.654Z,7.67
2019-01-14T10:49:06.621Z,6.50
2019-01-14T10:51:33.187Z,6.10
2019-01-14T10:54:05.957Z,3.90
2019-01-14T10:56:34.973Z,7.97
2019-01-14T10:59:06.130Z,7.63
2019-01-14T11:01:35.196Z,6.77
2019-01-14T11:04:04.957Z,12.37
2019-01-14T11:06:34.319Z,4.87
2019-01-14T11:09:05.994Z,6.00
2019-01-14T11:11:35.241Z,4.87
2019-01-14T11:14:05.198Z,7.03
2019-01-14T11:16:34.961Z,5.40
2019-01-14T11:19:04.342Z,7.23
2019-01-14T11:21:34.079Z,6.60
2019-01-14T11:24:03.045Z,6.37
2019-01-14T11:26:32.323Z,8.40
2019-01-14T11:29:01.281Z,10.93
2019-01-14T11:31:33.786Z,8.93
2019-01-14T11:34:02.828Z,8.57
2019-01-14T11:36:31.726Z,10.27
2019-01-14T11:39:05.215Z,8.00
2019-01-14T11:41:32.595Z,6.63
2019-01-14T11:44:01.501Z,9.20
2019-01-14T11:46:36.703Z,14.57
2019-01-14T11:49:07.550Z,14.60
2019-01-14T11:51:36.526Z,13.40
2019-01-14T11:54:06.025Z,8.13
2019-01-14T11:57:08.488Z,10.93
2019-01-14T11:59:37.462Z,9.93
2019-01-14T12:02:06.826Z,9.73
2019-01-14T12:04:36.073Z,9.30
2019-01-14T12:07:04.990Z,6.93
2019-01-14T12:09:38.215Z,7.63
2019-01-14T12:14:41.756Z,7.87
2019-01-14T12:17:11.758Z,10.13
2019-01-14T12:19:42.240Z,8.73
2019-01-14T12:22:12.206Z,6.27
2019-01-14T12:24:41.121Z,8.73
2019-01-14T12:27:10.189Z,8.00
2019-01-14T12:29:39.099Z,8.33
2019-01-14T12:32:14.376Z,4.83
2019-01-14T12:34:43.340Z,4.43
2019-01-14T12:37:13.634Z,4.17
2019-01-14T12:39:42.530Z,6.53
2019-01-14T12:42:11.797Z,5.40
2019-01-14T12:44:43.882Z,7.40
2019-01-14T12:47:12.807Z,10.03
2019-01-14T12:49:41.713Z,8.10
2019-01-14T12:52:13.519Z,6.50
2019-01-14T12:54:42.766Z,8.00
2019-01-14T12:57:12.302Z,5.17
2019-01-14T12:59:41.214Z,9.63
2019-01-14T13:02:10.114Z,5.37
2019-01-14T13:04:39.023Z,3.20
2019-01-14T13:07:08.281Z,4.87
2019-01-14T13:09:38.582Z,11.93
2019-01-14T13:12:07.742Z,9.20
2019-01-14T13:14:36.691Z,11.10
2019-01-14T13:17:12.469Z,7.50
2019-01-14T13:19:41.719Z,8.43
2019-01-14T13:22:10.795Z,8.57
2019-01-14T13:24:40.526Z,3.37
2019-01-14T13:27:09.943Z,5.90
2019-01-14T13:29:39.991Z,3.63
2019-01-14T13:34:44.882Z,4.97
2019-01-14T13:37:14.704Z,6.93
2019-01-14T13:39:43.799Z,7.90
2019-01-14T13:42:19.517Z,9.63
2019-01-14T13:44:48.715Z,8.83
2019-01-14T13:47:18.147Z,6.00
2019-01-14T13:49:47.161Z,9.20
2019-01-14T13:52:16.558Z,5.63
2019-01-14T13:54:45.562Z,8.40
2019-01-14T13:57:14.497Z,11.27
2019-01-14T13:59:43.458Z,8.37
2019-01-14T14:02:13.352Z,9.17
2019-01-14T14:04:42.173Z,7.27
2019-01-14T14:07:11.490Z,10.03
2019-01-14T14:09:42.659Z,11.07
2019-01-14T14:12:11.887Z,9.97
2019-01-14T14:14:40.740Z,5.40
2019-01-14T14:17:09.778Z,6.03
2019-01-14T14:19:41.853Z,6.47
2019-01-14T14:22:14.127Z,9.43
2019-01-14T14:24:43.117Z,9.97
2019-01-14T14:27:12.067Z,7.47
2019-01-14T14:29:41.331Z,5.80
2019-01-14T14:32:10.258Z,10.40
2019-01-14T14:34:45.745Z,9.87
2019-01-14T14:37:15.007Z,7.17
2019-01-14T14:39:48.534Z,5.67
2019-01-14T14:42:14.568Z,6.33
2019-01-14T14:44:43.563Z,8.67
2019-01-14T14:47:12.536Z,6.30
2019-01-14T14:49:41.463Z,5.67
2019-01-14T14:52:10.895Z,8.10
2019-01-14T14:54:40.073Z,8.83
2019-01-14T14:57:09.359Z,7.80
2019-01-14T14:59:41.156Z,10.27
2019-01-14T15:02:10.198Z,8.43
2019-01-14T15:04:40.943Z,7.30
2019-01-14T15:07:10.375Z,11.37
2019-01-14T15:09:40.012Z,13.33
2019-01-14T15:12:09.151Z,9.60
2019-01-14T15:14:43.650Z,9.40
2019-01-14T15:17:12.807Z,9.77
2019-01-14T15:19:42.394Z,10.10
2019-01-14T15:22:11.465Z,8.97
2019-01-14T15:24:40.536Z,9.87
2019-01-14T15:27:09.593Z,7.37
2019-01-14T15:29:38.855Z,8.97
2019-01-14T15:32:08.518Z,6.97
2019-01-14T15:34:40.768Z,7.17
2019-01-14T15:37:10.188Z,6.07
2019-01-14T15:39:39.484Z,7.13
2019-01-14T15:42:09.466Z,13.03
2019-01-14T15:44:38.572Z,9.57
2019-01-14T15:47:07.659Z,9.80
2019-01-14T15:49:36.684Z,10.37
2019-01-14T15:52:05.990Z,8.67
2019-01-14T15:54:35.861Z,6.30
2019-01-14T15:57:05.236Z,9.87
2019-01-14T15:59:34.516Z,5.77
2019-01-14T16:04:39.205Z,7.37
2019-01-14T16:07:08.491Z,5.67
2019-01-14T16:09:38.057Z,6.20
2019-01-14T16:12:10.363Z,4.53
2019-01-14T16:14:39.359Z,7.03
2019-01-14T16:17:08.557Z,5.40
2019-01-14T16:19:39.346Z,7.37
2019-01-14T16:22:23.959Z,7.87
2019-01-14T16:24:53.382Z,11.60
2019-01-14T16:27:22.648Z,7.00
2019-01-14T16:32:26.765Z,5.13
2019-01-14T16:34:56.078Z,5.97
2019-01-14T16:37:25.149Z,10.20
2019-01-14T16:39:54.281Z,9.23
2019-01-14T16:42:23.459Z,6.07
2019-01-14T16:44:53.421Z,10.63
2019-01-14T16:47:22.846Z,11.43
2019-01-14T16:49:51.874Z,10.77
2019-01-14T16:52:22.283Z,8.30
2019-01-14T16:54:51.937Z,6.53
2019-01-14T16:57:20.922Z,6.83
2019-01-14T16:59:53.431Z,7.23
2019-01-14T17:02:22.464Z,4.97
2019-01-14T17:04:52.632Z,5.40
2019-01-14T17:07:21.622Z,4.60
2019-01-14T17:09:51.600Z,4.20
2019-01-14T17:12:21.426Z,3.53
2019-01-14T17:14:51.844Z,7.60
2019-01-14T17:17:20.894Z,8.80
2019-01-14T17:19:50.471Z,5.77
2019-01-14T17:22:21.029Z,5.90
2019-01-14T17:24:53.033Z,5.67
2019-01-14T17:27:22.424Z,7.43
2019-01-14T17:29:54.462Z,8.63
2019-01-14T17:32:23.510Z,7.83
2019-01-14T17:34:53.210Z,7.67
2019-01-14T17:37:22.320Z,9.87
2019-01-14T17:39:52.064Z,7.03
2019-01-14T17:42:21.377Z,6.40
2019-01-14T17:44:50.625Z,7.17
2019-01-14T17:47:20.067Z,9.00
2019-01-14T17:49:49.032Z,7.87
2019-01-14T17:52:18.069Z,5.97
2019-01-14T17:54:47.545Z,8.90
2019-01-14T17:57:16.594Z,6.33
2019-01-14T17:59:45.815Z,11.40
2019-01-14T18:02:15.047Z,12.60
2019-01-14T18:04:44.687Z,7.37
2019-01-14T18:07:13.962Z,13.40
2019-01-14T18:09:42.923Z,6.40
2019-01-14T18:12:12.152Z,8.27
2019-01-14T18:14:41.076Z,8.80
2019-01-14T18:17:10.650Z,8.57
2019-01-14T18:19:40.192Z,10.57
2019-01-14T18:22:12.610Z,6.80
2019-01-14T18:24:41.719Z,8.00
2019-01-14T18:27:10.841Z,8.97
2019-01-14T18:29:40.792Z,6.23
2019-01-14T18:32:10.051Z,10.97
2019-01-14T18:34:39.076Z,10.83
2019-01-14T18:37:14.391Z,6.37
2019-01-14T18:39:48.264Z,9.10
2019-01-14T18:42:17.939Z,10.67
2019-01-14T18:44:46.997Z,12.23
2019-01-14T18:47:16.091Z,8.17
2019-01-14T18:49:45.850Z,9.97
2019-01-14T18:52:20.016Z,9.57
2019-01-14T18:54:49.934Z,10.63
2019-01-14T18:57:19.029Z,10.80
2019-01-14T18:59:49.089Z,10.90
2019-01-14T19:02:18.107Z,8.67
2019-01-14T19:04:47.173Z,10.67
2019-01-14T19:07:16.449Z,8.80
2019-01-14T19:09:45.619Z,14.10
2019-01-14T19:12:15.462Z,9.13
2019-01-14T19:14:44.398Z,8.80
2019-01-14T19:17:13.435Z,7.47
2019-01-14T19:19:42.792Z,6.57
2019-01-14T19:22:15.000Z,7.47
2019-01-14T19:24:43.980Z,6.87
2019-01-14T19:27:16.560Z,5.47
2019-01-14T19:29:44.135Z,6.10
2019-01-14T19:32:13.224Z,12.57
2019-01-14T19:34:42.580Z,5.20
2019-01-14T19:37:13.189Z,7.30
2019-01-14T19:39:42.922Z,7.57
2019-01-14T19:42:11.869Z,7.80
2019-01-14T19:44:41.003Z,9.47
2019-01-14T19:47:10.002Z,7.87
2019-01-14T19:49:38.979Z,9.53
2019-01-14T19:52:35.752Z,11.07
2019-01-14T19:55:05.117Z,7.17
2019-01-14T19:57:34.111Z,6.30
2019-01-14T20:00:03.160Z,18.57
2019-01-14T20:02:32.178Z,10.77
2019-01-14T20:05:01.417Z,11.50
2019-01-14T20:07:32.142Z,18.50
2019-01-14T20:10:01.415Z,13.60
2019-01-14T20:12:30.526Z,12.20
2019-01-14T20:15:02.692Z,10.80
2019-01-14T20:17:32.544Z,10.17
2019-01-14T20:20:01.833Z,11.33
2019-01-14T20:22:59.368Z,14.00
2019-01-14T20:25:28.347Z,12.13
2019-01-14T20:28:00.588Z,16.30
2019-01-14T20:30:29.611Z,16.87
2019-01-14T20:32:58.742Z,16.33
2019-01-14T20:35:28.314Z,15.30
2019-01-14T20:38:01.946Z,12.30
2019-01-14T20:40:31.937Z,9.03
2019-01-14T20:43:01.417Z,12.60
2019-01-14T20:45:30.693Z,9.60
2019-01-14T20:48:02.918Z,12.40
2019-01-14T20:50:32.396Z,13.60
2019-01-14T20:53:01.423Z,10.63
2019-01-14T20:55:30.843Z,11.63
2019-01-14T20:58:00.198Z,9.13
2019-01-14T21:00:29.862Z,10.23
2019-01-14T21:02:59.129Z,7.23
2019-01-14T21:05:28.588Z,7.30
2019-01-14T21:07:57.771Z,10.07
2019-01-14T21:10:27.339Z,14.13
2019-01-14T21:12:56.703Z,12.80
2019-01-14T21:15:26.501Z,15.10
2019-01-14T21:17:56.074Z,9.27
2019-01-14T21:20:25.793Z,16.97
2019-01-14T21:23:31.357Z,11.10
2019-01-14T21:28:36.312Z,9.27
2019-01-14T21:31:05.374Z,7.67
2019-01-14T21:33:34.694Z,9.60
2019-01-14T21:36:04.094Z,10.53
2019-01-14T21:38:33.349Z,7.50
2019-01-14T21:41:02.314Z,11.07
2019-01-14T21:43:31.358Z,9.83
2019-01-14T21:46:01.450Z,12.37
2019-01-14T21:48:30.834Z,8.30
2019-01-14T21:50:59.885Z,11.87
2019-01-14T21:53:29.156Z,5.47
2019-01-14T21:55:58.472Z,5.87
2019-01-14T21:58:28.836Z,9.03
2019-01-14T22:00:58.021Z,8.17
2019-01-14T22:03:27.303Z,12.13
2019-01-14T22:05:56.249Z,6.20
2019-01-14T22:08:25.429Z,7.03
2019-01-14T22:10:54.523Z,7.00
2019-01-14T22:13:23.447Z,8.27
2019-01-14T22:15:52.436Z,11.63
2019-01-14T22:18:21.442Z,9.77
2019-01-14T22:20:52.568Z,6.83
2019-01-14T22:23:55.339Z,10.33
2019-01-14T22:26:24.363Z,5.30
2019-01-14T22:28:55.209Z,8.37
2019-01-14T22:31:26.306Z,8.83
2019-01-14T22:33:55.231Z,7.30
2019-01-14T22:36:25.031Z,8.07
2019-01-14T22:38:53.901Z,8.83
2019-01-14T22:41:23.847Z,10.23
2019-01-14T22:43:56.583Z,7.53
2019-01-14T22:46:26.153Z,9.17
2019-01-14T22:48:55.728Z,9.10
2019-01-14T22:51:25.250Z,5.33
2019-01-14T22:53:57.583Z,12.70
2019-01-14T22:56:26.697Z,5.93
2019-01-14T22:58:56.797Z,7.10
2019-01-14T23:01:39.806Z,5.47
2019-01-14T23:04:09.423Z,8.73
2019-01-14T23:06:39.247Z,8.80
2019-01-14T23:09:09.566Z,6.50
2019-01-14T23:11:38.938Z,7.20
2019-01-14T23:14:08.934Z,5.03
2019-01-14T23:16:39.711Z,4.67
2019-01-14T23:19:08.964Z,9.43
2019-01-14T23:21:38.416Z,6.93
2019-01-14T23:24:09.112Z,9.07
2019-01-14T23:26:38.295Z,8.20
2019-01-14T23:29:07.653Z,11.67
2019-01-14T23:31:37.659Z,6.60
2019-01-14T23:34:06.666Z,7.27
2019-01-14T23:36:35.638Z,8.67
2019-01-14T23:39:08.299Z,6.53
2019-01-14T23:41:37.293Z,6.40
2019-01-14T23:44:06.335Z,9.40
2019-01-14T23:46:35.376Z,7.17
2019-01-14T23:49:05.150Z,8.00
2019-01-14T23:51:34.341Z,7.37
2019-01-14T23:54:03.443Z,7.13
2019-01-14T23:56:32.579Z,6.63
2019-01-14T23:59:01.596Z,6.20
